Time;durP1;ratioP1;P1;durP2;ratioP2;P2;SDS_P1;SDS_P2;PMS_P1;PMS_P2;Temp;Humidity;BMP_temperature;BMP_pressure;BME280_temperature;BME280_humidity;BME280_pressure;Samples;Min_cycle;Max_cycle;Signal;HPM_P1;HPM_P2
2023/11/04 00:01:22;;;;;;;16.77;3.07;;;;;;;;;;5032416;28;20873;-82
2023/11/04 00:03:50;;;;;;;14.83;2.80;;;;;;;;;;5032121;28;20299;-83
2023/11/04 00:06:18;;;;;;;15.50;2.70;;;;;;;;;;5032569;28;20196;-82
2023/11/04 00:08:47;;;;;;;12.57;2.43;;;;;;;;;;5032546;28;20200;-81
2023/11/04 00:11:14;;;;;;;14.63;2.40;;;;;;;;;;5030776;28;20235;-82
2023/11/04 00:13:41;;;;;;;12.00;2.40;;;;;;;;;;5032125;28;20291;-83
2023/11/04 00:16:09;;;;;;;13.60;2.77;;;;;;;;;;5032339;28;20209;-81
2023/11/04 00:18:37;;;;;;;12.07;2.73;;;;;;;;;;5032102;28;20704;-82
2023/11/04 00:21:04;;;;;;;14.30;2.70;;;;;;;;;;5031989;28;20216;-82
2023/11/04 00:23:31;;;;;;;12.57;2.67;;;;;;;;;;5032085;28;20207;-83
2023/11/04 00:26:00;;;;;;;13.17;2.50;;;;;;;;;;5029434;28;20192;-82
2023/11/04 00:28:27;;;;;;;10.93;2.50;;;;;;;;;;5051420;28;20318;-83
2023/11/04 00:30:55;;;;;;;13.37;2.97;;;;;;;;;;5034028;28;20607;-82
2023/11/04 00:33:22;;;;;;;10.23;2.30;;;;;;;;;;5051515;28;20226;-82
2023/11/04 00:35:49;;;;;;;15.00;2.67;;;;;;;;;;5032056;28;20227;-82
2023/11/04 00:38:19;;;;;;;9.50;2.40;;;;;;;;;;5032092;28;20228;-83
2023/11/04 00:40:46;;;;;;;14.63;2.60;;;;;;;;;;5031299;28;20207;-83
2023/11/04 00:43:15;;;;;;;12.90;2.80;;;;;;;;;;5026282;28;20214;-83
2023/11/04 00:45:42;;;;;;;10.57;2.67;;;;;;;;;;5031789;28;20640;-82
2023/11/04 00:48:09;;;;;;;14.30;2.40;;;;;;;;;;5032179;28;20228;-82
2023/11/04 00:50:37;;;;;;;13.47;2.50;;;;;;;;;;5031568;28;20231;-82
2023/11/04 00:53:05;;;;;;;12.83;2.93;;;;;;;;;;5031298;28;20192;-82
2023/11/04 00:55:32;;;;;;;13.53;3.17;;;;;;;;;;5031175;28;20204;-82
2023/11/04 00:57:59;;;;;;;14.20;3.27;;;;;;;;;;5029754;28;20311;-83
2023/11/04 01:00:29;;;;;;;13.67;2.50;;;;;;;;;;5031168;28;20232;-82
2023/11/04 01:02:56;;;;;;;15.77;3.00;;;;;;;;;;5031484;28;20196;-83
2023/11/04 01:05:24;;;;;;;13.90;2.83;;;;;;;;;;5031674;28;20284;-82
2023/11/04 01:07:52;;;;;;;12.80;2.57;;;;;;;;;;5031265;28;20212;-82
2023/11/04 01:10:19;;;;;;;13.00;2.67;;;;;;;;;;5031363;28;20851;-82
2023/11/04 01:12:47;;;;;;;14.57;3.00;;;;;;;;;;5031115;28;20246;-82
2023/11/04 01:15:14;;;;;;;15.27;3.17;;;;;;;;;;5030184;28;20295;-82
2023/11/04 01:17:43;;;;;;;13.47;2.70;;;;;;;;;;5031098;28;20281;-82
2023/11/04 01:20:11;;;;;;;13.93;2.90;;;;;;;;;;5030999;28;20232;-82
2023/11/04 01:22:38;;;;;;;14.60;2.47;;;;;;;;;;5031488;28;20220;-82
2023/11/04 01:25:06;;;;;;;15.70;2.63;;;;;;;;;;5031410;28;20279;-83
2023/11/04 01:27:33;;;;;;;14.80;2.40;;;;;;;;;;5030946;28;20279;-83
2023/11/04 01:30:00;;;;;;;14.87;2.37;;;;;;;;;;5029798;28;20232;-82
2023/11/04 01:32:28;;;;;;;14.57;2.87;;;;;;;;;;5030832;28;20299;-82
2023/11/04 01:34:58;;;;;;;12.23;2.77;;;;;;;;;;5031629;28;20656;-82
2023/11/04 01:37:26;;;;;;;14.03;2.40;;;;;;;;;;5031552;28;20212;-82
2023/11/04 01:39:53;;;;;;;16.53;2.70;;;;;;;;;;5030624;28;20224;-83
2023/11/04 01:42:20;;;;;;;9.97;2.43;;;;;;;;;;5031121;28;20203;-82
2023/11/04 01:44:47;;;;;;;17.57;3.10;;;;;;;;;;5031244;28;20250;-81
2023/11/04 01:47:15;;;;;;;14.47;2.40;;;;;;;;;;5039878;28;20291;-82
2023/11/04 01:49:42;;;;;;;18.17;2.73;;;;;;;;;;5051018;28;20286;-82
2023/11/04 01:52:11;;;;;;;14.37;2.90;;;;;;;;;;5051027;28;20227;-81
2023/11/04 01:54:39;;;;;;;15.50;2.77;;;;;;;;;;5055138;28;20203;-82
2023/11/04 01:57:06;;;;;;;17.97;3.60;;;;;;;;;;5054203;28;20663;-81
2023/11/04 01:59:33;;;;;;;14.77;2.53;;;;;;;;;;5054243;28;20259;-81
2023/11/04 02:02:01;;;;;;;17.43;2.70;;;;;;;;;;5047916;28;20583;-81
2023/11/04 02:04:30;;;;;;;19.37;3.30;;;;;;;;;;5034677;28;20207;-81
2023/11/04 02:06:57;;;;;;;18.00;2.50;;;;;;;;;;5034529;28;20275;-82
2023/11/04 02:09:27;;;;;;;19.30;2.90;;;;;;;;;;5034481;28;20228;-81
2023/11/04 02:11:55;;;;;;;18.30;3.00;;;;;;;;;;5034568;28;20236;-81
2023/11/04 02:14:22;;;;;;;20.50;3.10;;;;;;;;;;5034379;28;20261;-81
2023/11/04 02:16:50;;;;;;;20.23;2.73;;;;;;;;;;5034326;28;20228;-82
2023/11/04 02:19:17;;;;;;;15.47;2.90;;;;;;;;;;5041843;28;20227;-81
2023/11/04 02:21:45;;;;;;;16.13;2.37;;;;;;;;;;5050866;28;20203;-81
2023/11/04 02:24:13;;;;;;;17.00;2.80;;;;;;;;;;5013669;28;20243;-81
2023/11/04 02:26:40;;;;;;;15.23;2.57;;;;;;;;;;5014724;28;20201;-81
2023/11/04 02:29:08;;;;;;;13.57;2.13;;;;;;;;;;5014443;28;20267;-81
2023/11/04 02:31:35;;;;;;;14.97;2.30;;;;;;;;;;5014224;28;20279;-81
2023/11/04 02:34:02;;;;;;;17.43;2.20;;;;;;;;;;5016914;28;20870;-81
2023/11/04 02:36:35;;;;;;;24.43;3.17;;;;;;;;;;5053938;28;20199;-81
2023/11/04 02:39:04;;;;;;;16.03;2.57;;;;;;;;;;5053062;28;20285;-81
2023/11/04 02:41:31;;;;;;;19.03;2.47;;;;;;;;;;5053780;28;20196;-81
2023/11/04 02:43:58;;;;;;;19.30;2.77;;;;;;;;;;5054056;28;20230;-82
2023/11/04 02:46:26;;;;;;;14.33;2.57;;;;;;;;;;5040780;28;20232;-81
2023/11/04 02:48:53;;;;;;;16.80;2.80;;;;;;;;;;5034355;28;20266;-81
2023/11/04 02:51:20;;;;;;;16.13;2.70;;;;;;;;;;5027543;28;20243;-81
2023/11/04 02:53:47;;;;;;;20.17;2.93;;;;;;;;;;5033438;28;20235;-82
2023/11/04 02:56:17;;;;;;;16.13;2.30;;;;;;;;;;5033581;28;20284;-81
2023/11/04 02:58:44;;;;;;;16.90;2.80;;;;;;;;;;5033472;28;20285;-81
2023/11/04 03:01:11;;;;;;;18.80;2.77;;;;;;;;;;5033720;28;20269;-81
2023/11/04 03:03:39;;;;;;;16.83;2.57;;;;;;;;;;5033469;28;20231;-82
2023/11/04 03:06:06;;;;;;;18.07;2.70;;;;;;;;;;5030913;28;20209;-81
2023/11/04 03:08:34;;;;;;;16.63;2.33;;;;;;;;;;5032666;28;20240;-81
2023/11/04 03:11:01;;;;;;;13.73;2.10;;;;;;;;;;5033248;28;20281;-81
2023/11/04 03:13:30;;;;;;;14.57;2.13;;;;;;;;;;5033658;28;20207;-80
2023/11/04 03:15:57;;;;;;;13.37;2.17;;;;;;;;;;5033203;28;20286;-82
2023/11/04 03:18:24;;;;;;;8.47;1.97;;;;;;;;;;5033084;28;20228;-81
2023/11/04 03:20:52;;;;;;;9.57;1.97;;;;;;;;;;5032826;28;20740;-81
2023/11/04 03:23:20;;;;;;;13.37;1.87;;;;;;;;;;5024677;28;20660;-81
2023/11/04 03:25:47;;;;;;;12.50;1.90;;;;;;;;;;5015774;28;20304;-81
2023/11/04 03:28:14;;;;;;;9.63;1.83;;;;;;;;;;5013378;28;20252;-82
2023/11/04 03:30:43;;;;;;;9.77;1.43;;;;;;;;;;5012996;28;20240;-81
2023/11/04 03:33:11;;;;;;;9.30;1.40;;;;;;;;;;5012953;28;20241;-81
2023/11/04 03:35:38;;;;;;;8.53;1.47;;;;;;;;;;5031376;28;20206;-82
2023/11/04 03:38:05;;;;;;;7.30;1.43;;;;;;;;;;5031280;28;20643;-82
2023/11/04 03:40:33;;;;;;;8.00;1.50;;;;;;;;;;5034976;28;20219;-81
2023/11/04 03:43:00;;;;;;;8.17;1.23;;;;;;;;;;5052565;28;20250;-81
2023/11/04 03:45:27;;;;;;;8.43;1.70;;;;;;;;;;5035094;28;20286;-80
2023/11/04 03:47:57;;;;;;;7.57;1.67;;;;;;;;;;5052740;28;20234;-82
2023/11/04 03:50:24;;;;;;;7.70;1.00;;;;;;;;;;5052202;28;20608;-81
2023/11/04 03:52:52;;;;;;;6.17;1.00;;;;;;;;;;5052316;28;20645;-81
2023/11/04 03:55:19;;;;;;;6.67;1.00;;;;;;;;;;5050673;28;20242;-81
2023/11/04 03:57:46;;;;;;;3.33;1.07;;;;;;;;;;5052546;28;20232;-81
2023/11/04 04:00:14;;;;;;;7.97;1.10;;;;;;;;;;5052503;28;20231;-81
2023/11/04 04:02:41;;;;;;;6.53;0.93;;;;;;;;;;5052141;28;20277;-82
2023/11/04 04:05:10;;;;;;;4.03;1.07;;;;;;;;;;5052139;28;20286;-81
2023/11/04 04:07:37;;;;;;;5.13;0.97;;;;;;;;;;5052012;28;20613;-80
2023/11/04 04:10:05;;;;;;;3.33;0.60;;;;;;;;;;5050301;28;21020;-82
2023/11/04 04:12:32;;;;;;;2.80;0.70;;;;;;;;;;5052332;28;20238;-82
2023/11/04 04:15:00;;;;;;;5.07;0.87;;;;;;;;;;5051726;28;20227;-82
2023/11/04 04:17:28;;;;;;;3.07;0.50;;;;;;;;;;5052113;28;20200;-82
2023/11/04 04:19:55;;;;;;;2.40;0.50;;;;;;;;;;5051550;28;20253;-83
2023/11/04 04:22:23;;;;;;;3.63;0.80;;;;;;;;;;5052041;28;20223;-82
2023/11/04 04:24:51;;;;;;;3.33;0.40;;;;;;;;;;5052164;28;20200;-82
2023/11/04 04:27:18;;;;;;;1.87;0.33;;;;;;;;;;5033502;28;20303;-82
2023/11/04 04:29:45;;;;;;;2.67;0.43;;;;;;;;;;5031578;28;20756;-82
2023/11/04 04:32:12;;;;;;;1.20;0.43;;;;;;;;;;5031805;28;20291;-82
2023/11/04 04:34:40;;;;;;;2.67;0.50;;;;;;;;;;5031449;28;20572;-82
2023/11/04 04:37:07;;;;;;;3.30;0.40;;;;;;;;;;5032114;28;20204;-83
2023/11/04 04:39:36;;;;;;;1.63;0.50;;;;;;;;;;5032057;28;20621;-81
2023/11/04 04:42:04;;;;;;;1.93;0.40;;;;;;;;;;5028195;28;20265;-82
2023/11/04 04:44:33;;;;;;;2.37;0.30;;;;;;;;;;5031484;28;20239;-81
2023/11/04 04:47:01;;;;;;;1.87;0.53;;;;;;;;;;5032016;28;20200;-82
2023/11/04 04:49:28;;;;;;;1.83;0.40;;;;;;;;;;5031166;28;20295;-83
2023/11/04 04:51:55;;;;;;;1.87;0.37;;;;;;;;;;5031985;28;20228;-82
2023/11/04 04:54:23;;;;;;;2.30;0.30;;;;;;;;;;5031476;28;20755;-83
2023/11/04 04:56:51;;;;;;;1.60;0.20;;;;;;;;;;5032151;28;20200;-82
2023/11/04 04:59:18;;;;;;;1.13;0.20;;;;;;;;;;5030146;28;20322;-83
2023/11/04 05:01:46;;;;;;;0.60;0.20;;;;;;;;;;5031737;28;20263;-82
2023/11/04 05:04:14;;;;;;;1.90;0.40;;;;;;;;;;5031634;28;20693;-83
2023/11/04 05:06:41;;;;;;;2.03;0.30;;;;;;;;;;5031527;28;20200;-82
2023/11/04 05:09:08;;;;;;;0.80;0.30;;;;;;;;;;5030854;28;20228;-82
2023/11/04 05:11:35;;;;;;;1.13;0.13;;;;;;;;;;5031506;28;20240;-82
2023/11/04 05:14:04;;;;;;;0.90;0.40;;;;;;;;;;5031396;28;20231;-83
2023/11/04 05:16:31;;;;;;;1.20;0.20;;;;;;;;;;5051128;28;20199;-82
2023/11/04 05:18:59;;;;;;;0.93;0.50;;;;;;;;;;5050732;28;20314;-83
2023/11/04 05:21:26;;;;;;;0.60;0.20;;;;;;;;;;5051853;28;20232;-82
2023/11/04 05:23:54;;;;;;;2.17;0.30;;;;;;;;;;5033751;28;20242;-82
2023/11/04 05:26:21;;;;;;;1.93;0.20;;;;;;;;;;5051510;28;20200;-82
2023/11/04 05:28:49;;;;;;;0.93;0.20;;;;;;;;;;5055428;28;20206;-83
2023/11/04 05:31:17;;;;;;;0.93;0.30;;;;;;;;;;5053204;28;20231;-84
2023/11/04 05:33:45;;;;;;;1.73;0.30;;;;;;;;;;5052298;28;20286;-83
2023/11/04 05:36:13;;;;;;;0.37;0.30;;;;;;;;;;5035258;28;20246;-83
2023/11/04 05:38:40;;;;;;;0.50;0.17;;;;;;;;;;5034999;28;20196;-82
2023/11/04 05:41:08;;;;;;;1.03;0.20;;;;;;;;;;5035541;28;20283;-82
2023/11/04 05:43:35;;;;;;;0.30;0.20;;;;;;;;;;5035264;28;20280;-82
2023/11/04 05:46:03;;;;;;;0.30;0.10;;;;;;;;;;5028549;28;20896;-83
2023/11/04 05:48:33;;;;;;;0.83;0.20;;;;;;;;;;5035281;28;20196;-82
2023/11/04 05:51:00;;;;;;;0.50;0.10;;;;;;;;;;5034898;28;20193;-82
2023/11/04 05:53:27;;;;;;;0.30;0.20;;;;;;;;;;5034862;28;20227;-83
2023/11/04 05:55:54;;;;;;;0.37;0.10;;;;;;;;;;5034674;28;20280;-83
2023/11/04 05:58:21;;;;;;;0.50;0.20;;;;;;;;;;5035377;28;20232;-82
2023/11/04 06:00:48;;;;;;;0.57;0.10;;;;;;;;;;5034609;28;20318;-83
2023/11/04 06:03:16;;;;;;;0.60;0.20;;;;;;;;;;5044629;28;20250;-83
2023/11/04 06:05:44;;;;;;;1.03;0.20;;;;;;;;;;5054477;28;20206;-83
2023/11/04 06:08:11;;;;;;;1.10;0.30;;;;;;;;;;5054539;28;20291;-83
2023/11/04 06:10:39;;;;;;;0.70;0.37;;;;;;;;;;5054891;28;20622;-83
2023/11/04 06:13:06;;;;;;;0.87;0.30;;;;;;;;;;5054317;28;20257;-84
2023/11/04 06:15:34;;;;;;;1.53;0.30;;;;;;;;;;5054020;28;20199;-83
2023/11/04 06:18:01;;;;;;;0.70;0.20;;;;;;;;;;5048049;28;20293;-83
2023/11/04 06:20:31;;;;;;;0.73;0.50;;;;;;;;;;5034294;28;20691;-83
2023/11/04 06:22:59;;;;;;;3.07;0.80;;;;;;;;;;5034227;28;20769;-83
2023/11/04 06:25:27;;;;;;;2.37;0.63;;;;;;;;;;5034313;28;20224;-84
2023/11/04 06:27:54;;;;;;;2.07;0.70;;;;;;;;;;5034426;28;20595;-83
2023/11/04 06:30:22;;;;;;;3.43;0.60;;;;;;;;;;5033779;28;20751;-83
2023/11/04 06:32:49;;;;;;;1.47;0.57;;;;;;;;;;5033968;28;20291;-83
2023/11/04 06:35:16;;;;;;;4.93;0.70;;;;;;;;;;5032253;28;20287;-82
2023/11/04 06:37:43;;;;;;;4.30;0.90;;;;;;;;;;5034138;28;20276;-83
2023/11/04 06:40:13;;;;;;;3.87;0.70;;;;;;;;;;5033558;28;20330;-83
2023/11/04 06:42:40;;;;;;;5.60;0.80;;;;;;;;;;5034275;28;20657;-82
2023/11/04 06:45:08;;;;;;;3.37;0.80;;;;;;;;;;5033499;28;20220;-83
2023/11/04 06:47:36;;;;;;;5.10;0.90;;;;;;;;;;5034089;28;20223;-83
2023/11/04 06:50:04;;;;;;;6.30;1.10;;;;;;;;;;5028428;28;20725;-83
2023/11/04 06:52:32;;;;;;;8.57;1.17;;;;;;;;;;5033914;28;20299;-83
2023/11/04 06:55:00;;;;;;;5.73;1.10;;;;;;;;;;5033620;28;20280;-83
2023/11/04 06:57:28;;;;;;;14.13;1.67;;;;;;;;;;5033171;28;20576;-83
2023/11/04 06:59:56;;;;;;;8.43;1.50;;;;;;;;;;5032993;28;20763;-83
2023/11/04 07:02:24;;;;;;;10.33;1.50;;;;;;;;;;5033418;28;20250;-82
2023/11/04 07:04:51;;;;;;;11.43;1.43;;;;;;;;;;5033730;28;20680;-83
2023/11/04 07:07:18;;;;;;;10.77;1.83;;;;;;;;;;5029822;28;20208;-83
2023/11/04 07:09:45;;;;;;;12.03;2.50;;;;;;;;;;5033670;28;20196;-83
2023/11/04 07:12:13;;;;;;;12.97;1.80;;;;;;;;;;5033123;28;20220;-83
2023/11/04 07:14:41;;;;;;;10.87;2.20;;;;;;;;;;5033094;28;20292;-83
2023/11/04 07:17:08;;;;;;;14.90;2.50;;;;;;;;;;5033595;28;20883;-83
2023/11/04 07:19:36;;;;;;;20.60;2.90;;;;;;;;;;5033111;28;20267;-82
2023/11/04 07:22:03;;;;;;;14.57;2.97;;;;;;;;;;5031499;28;20244;-81
2023/11/04 07:24:31;;;;;;;24.57;3.97;;;;;;;;;;5053731;28;20279;-82
2023/11/04 07:26:59;;;;;;;20.67;3.07;;;;;;;;;;5052902;28;20925;-83
2023/11/04 07:29:26;;;;;;;20.70;3.50;;;;;;;;;;5052888;28;20295;-82
2023/11/04 07:31:55;;;;;;;28.77;3.97;;;;;;;;;;5052505;28;20631;-84
2023/11/04 07:34:22;;;;;;;21.93;3.80;;;;;;;;;;5045479;28;20747;-82
2023/11/04 07:36:49;;;;;;;25.50;4.00;;;;;;;;;;5033064;28;20200;-82
2023/11/04 07:39:17;;;;;;;26.67;4.20;;;;;;;;;;5039491;28;20206;-82
2023/11/04 07:41:44;;;;;;;32.73;4.97;;;;;;;;;;5052594;28;20207;-82
2023/11/04 07:44:12;;;;;;;23.13;4.00;;;;;;;;;;5052378;28;20227;-82
2023/11/04 07:46:40;;;;;;;22.73;3.77;;;;;;;;;;5052775;28;20230;-82
2023/11/04 07:49:08;;;;;;;23.37;4.60;;;;;;;;;;5052421;28;20204;-82
2023/11/04 07:51:35;;;;;;;32.50;4.80;;;;;;;;;;5051672;28;20245;-83
2023/11/04 07:54:03;;;;;;;28.33;4.63;;;;;;;;;;5051285;28;20286;-83
2023/11/04 07:56:31;;;;;;;27.67;5.00;;;;;;;;;;5052163;28;20676;-83
2023/11/04 07:58:58;;;;;;;27.00;4.67;;;;;;;;;;5051935;28;20311;-83
2023/11/04 08:01:25;;;;;;;36.20;5.90;;;;;;;;;;5052700;28;20259;-84
2023/11/04 08:03:53;;;;;;;29.00;5.37;;;;;;;;;;5052740;28;20290;-83
2023/11/04 08:06:22;;;;;;;29.63;6.10;;;;;;;;;;5052334;28;20228;-83
2023/11/04 08:08:49;;;;;;;27.83;5.03;;;;;;;;;;5052414;28;20290;-81
2023/11/04 08:11:18;;;;;;;29.90;4.80;;;;;;;;;;5034153;28;20209;-82
2023/11/04 08:13:45;;;;;;;24.13;4.80;;;;;;;;;;5032162;28;20384;-82
2023/11/04 08:16:12;;;;;;;29.77;5.43;;;;;;;;;;5032225;28;20228;-82
2023/11/04 08:18:40;;;;;;;24.33;4.70;;;;;;;;;;5032322;28;20665;-81
2023/11/04 08:21:08;;;;;;;26.00;4.70;;;;;;;;;;5031940;28;20314;-81
2023/11/04 08:23:36;;;;;;;31.70;5.63;;;;;;;;;;5032554;28;20292;-81
2023/11/04 08:26:04;;;;;;;29.13;5.67;;;;;;;;;;5031552;28;20993;-81
2023/11/04 08:28:32;;;;;;;26.27;5.22;;;;;;;;;;5051506;28;20278;-81
2023/11/04 08:31:00;;;;;;;39.30;6.27;;;;;;;;;;5051609;28;20231;-81
2023/11/04 08:33:27;;;;;;;39.00;6.22;;;;;;;;;;5051946;28;20265;-79
2023/11/04 08:35:55;;;;;;;32.88;6.43;;;;;;;;;;5012114;28;20228;-81
2023/11/04 08:38:23;;;;;;;28.67;5.70;;;;;;;;;;5012210;28;20201;-80
2023/11/04 08:40:52;;;;;;;35.50;5.80;;;;;;;;;;5011522;28;20279;-80
2023/11/04 08:43:19;;;;;;;28.15;5.15;;;;;;;;;;5022443;28;20220;-79
2023/11/04 08:45:46;;;;;;;28.50;6.00;;;;;;;;;;5032005;28;20200;-79
2023/11/04 08:48:13;;;;;;;28.58;6.15;;;;;;;;;;5031300;28;20203;-80
2023/11/04 08:50:41;;;;;;;24.27;6.53;;;;;;;;;;5031207;28;20300;-79
2023/11/04 08:53:08;;;;;;;25.40;4.80;;;;;;;;;;5030749;28;20275;-79
2023/11/04 08:55:35;;;;;;;29.27;6.07;;;;;;;;;;5031222;28;20255;-81
2023/11/04 08:58:03;;;;;;;25.52;5.78;;;;;;;;;;5031735;28;20228;-78
2023/11/04 09:00:31;;;;;;;30.17;6.90;;;;;;;;;;5031887;28;20255;-79
2023/11/04 09:03:00;;;;;;;34.22;6.65;;;;;;;;;;5030700;28;20200;-79
2023/11/04 09:05:28;;;;;;;27.63;5.63;;;;;;;;;;5030723;28;20197;-80
2023/11/04 09:07:55;;;;;;;30.67;5.85;;;;;;;;;;5030614;28;20211;-78
2023/11/04 09:10:22;;;;;;;32.15;6.03;;;;;;;;;;5030828;28;20231;-81
2023/11/04 09:12:49;;;;;;;31.63;5.70;;;;;;;;;;5035882;28;20195;-82
2023/11/04 09:15:18;;;;;;;23.75;5.15;;;;;;;;;;5037684;28;20291;-81
2023/11/04 09:17:45;;;;;;;30.30;6.55;;;;;;;;;;5030956;28;20295;-81
2023/11/04 09:20:13;;;;;;;42.55;6.47;;;;;;;;;;5030847;28;20251;-79
2023/11/04 09:22:40;;;;;;;28.37;5.73;;;;;;;;;;5011091;28;20228;-79
2023/11/04 09:25:09;;;;;;;33.10;5.87;;;;;;;;;;5026562;28;20200;-81
2023/11/04 09:27:36;;;;;;;33.90;6.53;;;;;;;;;;5031221;28;20207;-80
2023/11/04 09:30:03;;;;;;;35.07;6.00;;;;;;;;;;5031144;28;20270;-80
2023/11/04 09:32:32;;;;;;;34.00;5.90;;;;;;;;;;5031966;28;20235;-80
2023/11/04 09:34:59;;;;;;;32.13;6.37;;;;;;;;;;5030825;28;20295;-80
2023/11/04 09:37:27;;;;;;;37.73;6.50;;;;;;;;;;5029325;28;20239;-81
2023/11/04 09:39:54;;;;;;;33.07;5.93;;;;;;;;;;5030487;28;20201;-80
2023/11/04 09:42:21;;;;;;;31.93;6.40;;;;;;;;;;5030927;28;20204;-80
2023/11/04 09:44:48;;;;;;;31.37;6.50;;;;;;;;;;5030733;28;20228;-81
2023/11/04 09:47:16;;;;;;;34.13;6.10;;;;;;;;;;5020914;28;20197;-80
2023/11/04 09:49:44;;;;;;;36.20;6.40;;;;;;;;;;5030728;28;20659;-81
2023/11/04 09:52:13;;;;;;;32.97;5.97;;;;;;;;;;5030486;28;20236;-80
2023/11/04 09:54:41;;;;;;;32.60;6.57;;;;;;;;;;5031002;28;20193;-81
2023/11/04 09:57:09;;;;;;;29.87;5.83;;;;;;;;;;5031124;28;20203;-78
2023/11/04 09:59:36;;;;;;;32.37;6.27;;;;;;;;;;5031219;28;20224;-80
2023/11/04 10:02:03;;;;;;;28.65;5.70;;;;;;;;;;5031255;28;20323;-79
2023/11/04 10:04:30;;;;;;;25.55;5.32;;;;;;;;;;5030100;28;20292;-80
2023/11/04 10:06:59;;;;;;;28.40;5.65;;;;;;;;;;5031125;28;20291;-80
2023/11/04 10:09:27;;;;;;;34.40;6.57;;;;;;;;;;5030863;28;20232;-79
2023/11/04 10:11:54;;;;;;;24.15;5.60;;;;;;;;;;5028611;28;20207;-80
2023/11/04 10:14:21;;;;;;;22.10;5.07;;;;;;;;;;5032856;28;20647;-80
2023/11/04 10:16:49;;;;;;;22.13;4.65;;;;;;;;;;5034661;28;20203;-80
2023/11/04 10:19:16;;;;;;;22.52;4.78;;;;;;;;;;5034899;28;20196;-80
2023/11/04 10:21:44;;;;;;;22.75;4.25;;;;;;;;;;5034186;28;20271;-80
2023/11/04 10:24:13;;;;;;;22.45;4.25;;;;;;;;;;5034273;28;20677;-80
2023/11/04 10:26:40;;;;;;;20.55;4.38;;;;;;;;;;5034554;28;20224;-79
2023/11/04 10:29:08;;;;;;;22.38;4.45;;;;;;;;;;5034365;28;20204;-79
2023/11/04 10:31:36;;;;;;;20.42;4.20;;;;;;;;;;5033986;28;20236;-80
2023/11/04 10:34:05;;;;;;;23.35;4.28;;;;;;;;;;5034369;28;20640;-80
2023/11/04 10:36:33;;;;;;;18.92;4.75;;;;;;;;;;5032511;28;20741;-83
2023/11/04 10:39:02;;;;;;;17.27;3.90;;;;;;;;;;5033713;28;20228;-79
2023/11/04 10:41:36;;;;;;;9.77;2.20;;;;;;;;;;5034099;28;20276;-79
2023/11/04 10:44:07;;;;;;;8.87;1.90;;;;;;;;;;5026470;28;20199;-81
2023/11/04 10:46:37;;;;;;;7.23;1.73;;;;;;;;;;5033348;28;20748;-80
2023/11/04 10:49:09;;;;;;;7.30;1.63;;;;;;;;;;5034032;28;20235;-82
2023/11/04 10:51:39;;;;;;;8.10;1.87;;;;;;;;;;5033692;28;20665;-81
2023/11/04 10:54:10;;;;;;;9.40;2.10;;;;;;;;;;5033952;28;20287;-81
2023/11/04 10:56:43;;;;;;;8.50;2.20;;;;;;;;;;5015848;28;20300;-82
2023/11/04 10:59:16;;;;;;;8.00;2.17;;;;;;;;;;5029642;28;20200;-81
2023/11/04 11:01:43;;;;;;;6.90;2.13;;;;;;;;;;5033976;28;20327;-82
2023/11/04 11:04:11;;;;;;;8.93;2.07;;;;;;;;;;5014191;28;20245;-80
2023/11/04 11:06:39;;;;;;;8.37;1.97;;;;;;;;;;5030190;28;20236;-82
2023/11/04 11:09:08;;;;;;;6.67;1.63;;;;;;;;;;5033027;28;20254;-81
2023/11/04 11:11:38;;;;;;;10.63;2.57;;;;;;;;;;5032474;28;20197;-82
2023/11/04 11:14:07;;;;;;;11.97;2.30;;;;;;;;;;5024020;28;20299;-82
2023/11/04 11:16:34;;;;;;;9.90;2.33;;;;;;;;;;5027425;28;20557;-82
2023/11/04 11:19:09;;;;;;;9.37;2.20;;;;;;;;;;5031586;28;20291;-82
2023/11/04 11:21:49;;;;;;;11.65;2.17;;;;;;;;;;5030706;28;20252;-81
2023/11/04 11:24:16;;;;;;;11.77;2.73;;;;;;;;;;5030766;28;20196;-80
2023/11/04 11:26:50;;;;;;;15.80;2.73;;;;;;;;;;5032778;28;20228;-80
2023/11/04 11:29:23;;;;;;;20.77;3.10;;;;;;;;;;5047654;28;20658;-81
2023/11/04 11:31:51;;;;;;;13.33;3.07;;;;;;;;;;5048318;28;20246;-81
2023/11/04 11:34:19;;;;;;;16.93;4.03;;;;;;;;;;5032070;28;20226;-81
2023/11/04 11:36:48;;;;;;;19.60;3.40;;;;;;;;;;5030597;28;20327;-80
2023/11/04 11:39:15;;;;;;;17.07;4.00;;;;;;;;;;5031966;28;20205;-80
2023/11/04 11:41:43;;;;;;;19.70;3.73;;;;;;;;;;5031718;28;20625;-83
2023/11/04 11:44:12;;;;;;;16.30;3.47;;;;;;;;;;5014360;28;20724;-83
2023/11/04 11:46:42;;;;;;;18.97;3.80;;;;;;;;;;5032769;28;20239;-82
2023/11/04 11:49:10;;;;;;;14.87;3.00;;;;;;;;;;5032158;28;20192;-81
2023/11/04 11:51:37;;;;;;;14.03;3.23;;;;;;;;;;5030538;28;20304;-82
2023/11/04 11:54:05;;;;;;;17.03;3.27;;;;;;;;;;5030991;28;20192;-81
2023/11/04 11:56:32;;;;;;;16.30;3.27;;;;;;;;;;5030874;28;20649;-80
2023/11/04 11:59:05;;;;;;;18.07;4.07;;;;;;;;;;5030830;28;20851;-81
2023/11/04 12:01:33;;;;;;;16.40;3.47;;;;;;;;;;5031288;28;20224;-81
2023/11/04 12:04:02;;;;;;;16.17;3.67;;;;;;;;;;5031167;28;20200;-79
2023/11/04 12:06:30;;;;;;;16.83;3.03;;;;;;;;;;5031583;28;20240;-79
2023/11/04 12:08:58;;;;;;;18.53;3.30;;;;;;;;;;5030837;28;20725;-80
2023/11/04 12:11:26;;;;;;;14.43;3.07;;;;;;;;;;5031430;28;20737;-80
2023/11/04 12:13:53;;;;;;;14.33;2.60;;;;;;;;;;5029490;28;20200;-80
2023/11/04 12:16:20;;;;;;;13.30;2.90;;;;;;;;;;5031821;28;20633;-82
2023/11/04 12:18:48;;;;;;;14.10;2.83;;;;;;;;;;5031561;28;20224;-82
2023/11/04 12:21:17;;;;;;;16.38;3.15;;;;;;;;;;5030399;28;20243;-82
2023/11/04 12:23:45;;;;;;;14.52;3.53;;;;;;;;;;5031627;28;20196;-82
2023/11/04 12:26:12;;;;;;;12.60;3.25;;;;;;;;;;5031715;28;20216;-80
2023/11/04 12:28:40;;;;;;;16.20;3.00;;;;;;;;;;5025660;28;20282;-85
2023/11/04 12:31:07;;;;;;;14.85;2.72;;;;;;;;;;5030584;28;20686;-86
2023/11/04 12:33:35;;;;;;;10.07;2.40;;;;;;;;;;5033561;28;20200;-89
2023/11/04 12:36:03;;;;;;;12.50;2.40;;;;;;;;;;5037320;28;20232;-82
2023/11/04 12:38:31;;;;;;;15.50;2.75;;;;;;;;;;5030241;28;20200;-86
2023/11/04 12:40:58;;;;;;;11.70;2.63;;;;;;;;;;5031952;28;20200;-87
2023/11/04 12:43:26;;;;;;;14.25;2.70;;;;;;;;;;5031384;28;20197;-86
2023/11/04 12:45:54;;;;;;;14.90;3.03;;;;;;;;;;5014461;28;20232;-85
2023/11/04 12:48:21;;;;;;;16.50;3.55;;;;;;;;;;5030810;28;20200;-85
2023/11/04 12:50:49;;;;;;;12.40;2.70;;;;;;;;;;5029890;28;20232;-85
2023/11/04 12:53:18;;;;;;;14.57;3.17;;;;;;;;;;5036639;28;20201;-85
2023/11/04 12:55:47;;;;;;;12.57;3.15;;;;;;;;;;5029785;28;20203;-86
2023/11/04 12:58:14;;;;;;;14.43;2.95;;;;;;;;;;5039153;28;20246;-85
2023/11/04 13:00:41;;;;;;;18.23;3.88;;;;;;;;;;5032471;28;20280;-86
2023/11/04 13:03:08;;;;;;;12.95;3.80;;;;;;;;;;5023322;28;20443;-86
2023/11/04 13:05:36;;;;;;;17.70;3.63;;;;;;;;;;5030256;28;20259;-85
2023/11/04 13:08:04;;;;;;;16.67;2.97;;;;;;;;;;5027604;28;20231;-86
2023/11/04 13:10:31;;;;;;;19.85;3.80;;;;;;;;;;5032077;28;20209;-87
2023/11/04 13:13:00;;;;;;;17.63;3.53;;;;;;;;;;5030058;28;20227;-86
2023/11/04 13:15:28;;;;;;;15.55;2.72;;;;;;;;;;5034021;28;20282;-86
2023/11/04 13:17:56;;;;;;;16.60;3.77;;;;;;;;;;5035797;28;20208;-85
2023/11/04 13:20:23;;;;;;;17.47;3.30;;;;;;;;;;5039906;28;20283;-84
2023/11/04 13:22:51;;;;;;;21.00;3.90;;;;;;;;;;5030416;28;20231;-85
2023/11/04 13:25:18;;;;;;;20.83;3.67;;;;;;;;;;5030824;28;20227;-86
2023/11/04 13:27:45;;;;;;;22.30;4.23;;;;;;;;;;5031429;28;20287;-85
2023/11/04 13:30:16;;;;;;;20.53;4.20;;;;;;;;;;5032902;28;20319;-85
2023/11/04 13:32:43;;;;;;;17.63;4.20;;;;;;;;;;5041991;28;20203;-87
2023/11/04 13:35:10;;;;;;;21.57;3.93;;;;;;;;;;5030728;28;20227;-85
2023/11/04 13:37:38;;;;;;;22.47;4.33;;;;;;;;;;5033575;28;20291;-86
2023/11/04 13:40:06;;;;;;;23.67;4.70;;;;;;;;;;5025536;28;20291;-85
2023/11/04 13:42:34;;;;;;;20.63;3.97;;;;;;;;;;5027347;28;20764;-84
2023/11/04 13:45:01;;;;;;;20.83;4.10;;;;;;;;;;5031849;28;20197;-83
2023/11/04 13:47:35;;;;;;;22.42;3.63;;;;;;;;;;5033630;28;20220;-84
2023/11/04 13:50:04;;;;;;;22.77;4.28;;;;;;;;;;5038032;28;20204;-85
2023/11/04 13:52:31;;;;;;;19.73;4.13;;;;;;;;;;5053566;28;20548;-85
2023/11/04 13:54:59;;;;;;;21.30;3.83;;;;;;;;;;5043641;28;20215;-84
2023/11/04 13:57:27;;;;;;;21.13;4.82;;;;;;;;;;5034413;28;20192;-84
2023/11/04 13:59:54;;;;;;;22.13;4.03;;;;;;;;;;5031851;28;20280;-84
2023/11/04 14:02:26;;;;;;;17.80;3.77;;;;;;;;;;5039533;28;20310;-84
2023/11/04 14:04:55;;;;;;;20.80;4.13;;;;;;;;;;5025681;28;20280;-85
2023/11/04 14:07:22;;;;;;;19.23;4.30;;;;;;;;;;5032616;28;20578;-85
2023/11/04 14:09:49;;;;;;;21.37;4.30;;;;;;;;;;5040667;28;20243;-84
2023/11/04 14:12:17;;;;;;;23.70;4.43;;;;;;;;;;5033472;28;20715;-86
2023/11/04 14:14:45;;;;;;;18.93;4.17;;;;;;;;;;5046154;28;20200;-86
2023/11/04 14:17:12;;;;;;;25.30;4.60;;;;;;;;;;5025341;28;20730;-85
2023/11/04 14:19:39;;;;;;;22.10;3.93;;;;;;;;;;5051742;28;20327;-85
2023/11/04 14:22:08;;;;;;;19.37;3.97;;;;;;;;;;5018662;28;20307;-86
2023/11/04 14:24:36;;;;;;;23.63;3.93;;;;;;;;;;5031988;28;20732;-85
2023/11/04 14:27:04;;;;;;;16.70;3.87;;;;;;;;;;5034557;28;20236;-86
2023/11/04 14:29:31;;;;;;;20.07;3.83;;;;;;;;;;5029001;28;20252;-85
2023/11/04 14:31:59;;;;;;;19.30;3.47;;;;;;;;;;5029207;28;20315;-85
2023/11/04 14:34:26;;;;;;;11.80;2.17;;;;;;;;;;5030493;28;20224;-85
2023/11/04 14:36:53;;;;;;;13.07;2.30;;;;;;;;;;5028360;28;20625;-85